sensor_id;sensor_type;location;lat;lon;timestamp;pressure;altitude;pressure_sealevel;temperature;humidity
49216;BME280;45943;53.148;8.204;2023-04-02T00:00:27;101535.31;;;7.54;100.00
49216;BME280;45943;53.148;8.204;2023-04-02T00:05:27;101541.03;;;7.47;100.00
49216;BME280;45943;53.148;8.204;2023-04-02T00:07:59;101537.03;;;7.55;100.00
49216;BME280;45943;53.148;8.204;2023-04-02T00:10:38;101548.09;;;7.48;100.00
49216;BME280;45943;53.148;8.204;2023-04-02T00:13:19;101549.34;;;7.73;100.00
49216;BME280;45943;53.148;8.204;2023-04-02T00:15:49;101555.53;;;7.89;100.00
49216;BME280;45943;53.148;8.204;2023-04-02T00:18:21;101564.19;;;7.79;100.00
49216;BME280;45943;53.148;8.204;2023-04-02T00:20:52;101557.47;;;7.40;100.00
49216;BME280;45943;53.148;8.204;2023-04-02T00:23:24;101565.28;;;7.43;100.00
49216;BME280;45943;53.148;8.204;2023-04-02T00:25:51;101576.50;;;7.50;100.00
49216;BME280;45943;53.148;8.204;2023-04-02T00:28:18;101569.94;;;7.55;100.00
49216;BME280;45943;53.148;8.204;2023-04-02T00:30:46;101574.75;;;7.64;100.00
49216;BME280;45943;53.148;8.204;2023-04-02T00:33:14;101582.59;;;7.83;100.00
49216;BME280;45943;53.148;8.204;2023-04-02T00:35:43;101582.16;;;7.75;100.00
49216;BME280;45943;53.148;8.204;2023-04-02T00:38:26;101584.22;;;7.23;100.00
49216;BME280;45943;53.148;8.204;2023-04-02T00:40:56;101591.13;;;6.94;100.00
49216;BME280;45943;53.148;8.204;2023-04-02T00:43:27;101607.94;;;6.78;100.00
49216;BME280;45943;53.148;8.204;2023-04-02T00:45:57;101602.97;;;6.88;100.00
49216;BME280;45943;53.148;8.204;2023-04-02T00:51:10;101610.72;;;7.26;100.00
49216;BME280;45943;53.148;8.204;2023-04-02T00:53:43;101613.31;;;7.27;100.00
49216;BME280;45943;53.148;8.204;2023-04-02T00:56:21;101624.56;;;7.16;100.00
49216;BME280;45943;53.148;8.204;2023-04-02T00:59:03;101632.94;;;6.93;100.00
49216;BME280;45943;53.148;8.204;2023-04-02T01:01:34;101633.38;;;7.18;100.00
49216;BME280;45943;53.148;8.204;2023-04-02T01:04:03;101627.81;;;7.39;100.00
49216;BME280;45943;53.148;8.204;2023-04-02T01:06:31;101634.09;;;7.38;100.00
49216;BME280;45943;53.148;8.204;2023-04-02T01:09:07;101645.09;;;7.32;100.00
49216;BME280;45943;53.148;8.204;2023-04-02T01:11:47;101645.97;;;7.32;100.00
49216;BME280;45943;53.148;8.204;2023-04-02T01:17:38;101650.63;;;7.29;100.00
49216;BME280;45943;53.148;8.204;2023-04-02T01:20:28;101654.75;;;7.34;100.00
49216;BME280;45943;53.148;8.204;2023-04-02T01:23:06;101671.97;;;7.29;100.00
49216;BME280;45943;53.148;8.204;2023-04-02T01:30:48;101674.47;;;7.14;100.00
49216;BME280;45943;53.148;8.204;2023-04-02T01:33:20;101685.25;;;7.13;100.00
49216;BME280;45943;53.148;8.204;2023-04-02T01:35:54;101690.66;;;6.94;100.00
49216;BME280;45943;53.148;8.204;2023-04-02T01:38:32;101698.69;;;7.27;100.00
49216;BME280;45943;53.148;8.204;2023-04-02T01:41:16;101698.97;;;7.05;100.00
49216;BME280;45943;53.148;8.204;2023-04-02T01:43:54;101705.41;;;7.18;100.00
49216;BME280;45943;53.148;8.204;2023-04-02T01:46:28;101706.97;;;6.88;100.00
49216;BME280;45943;53.148;8.204;2023-04-02T01:49:03;101721.59;;;6.81;100.00
49216;BME280;45943;53.148;8.204;2023-04-02T01:51:39;101724.56;;;7.09;100.00
49216;BME280;45943;53.148;8.204;2023-04-02T01:54:08;101733.03;;;7.00;100.00
49216;BME280;45943;53.148;8.204;2023-04-02T01:56:35;101725.81;;;6.85;100.00
49216;BME280;45943;53.148;8.204;2023-04-02T01:59:01;101736.47;;;6.85;100.00
49216;BME280;45943;53.148;8.204;2023-04-02T02:01:41;101741.75;;;6.69;100.00
49216;BME280;45943;53.148;8.204;2023-04-02T02:04:13;101752.25;;;6.89;100.00
49216;BME280;45943;53.148;8.204;2023-04-02T02:06:41;101749.53;;;6.55;100.00
49216;BME280;45943;53.148;8.204;2023-04-02T02:09:11;101753.56;;;6.64;100.00
49216;BME280;45943;53.148;8.204;2023-04-02T02:11:43;101757.94;;;6.65;100.00
49216;BME280;45943;53.148;8.204;2023-04-02T02:14:16;101760.97;;;6.93;100.00
49216;BME280;45943;53.148;8.204;2023-04-02T02:16:45;101757.44;;;6.93;100.00
49216;BME280;45943;53.148;8.204;2023-04-02T02:19:17;101762.38;;;6.83;100.00
49216;BME280;45943;53.148;8.204;2023-04-02T02:22:04;101770.78;;;6.93;100.00
49216;BME280;45943;53.148;8.204;2023-04-02T02:24:37;101768.72;;;6.80;100.00
49216;BME280;45943;53.148;8.204;2023-04-02T02:27:08;101771.53;;;6.77;
49216;BME280;45943;53.148;8.204;2023-04-02T02:29:45;101779.53;;;6.41;100.00
49216;BME280;45943;53.148;8.204;2023-04-02T02:32:17;101780.13;;;6.10;100.00
49216;BME280;45943;53.148;8.204;2023-04-02T02:40:39;101795.81;;;6.35;100.00
49216;BME280;45943;53.148;8.204;2023-04-02T02:43:10;101805.88;;;6.47;100.00
49216;BME280;45943;53.148;8.204;2023-04-02T02:45:39;101809.91;;;6.56;100.00
49216;BME280;45943;53.148;8.204;2023-04-02T02:48:11;101815.91;;;6.42;100.00
49216;BME280;45943;53.148;8.204;2023-04-02T02:50:42;101815.16;;;6.39;100.00
49216;BME280;45943;53.148;8.204;2023-04-02T02:53:19;101816.78;;;6.24;100.00
49216;BME280;45943;53.148;8.204;2023-04-02T02:55:50;101822.03;;;6.25;100.00
49216;BME280;45943;53.148;8.204;2023-04-02T02:58:24;101830.19;;;6.41;100.00
49216;BME280;45943;53.148;8.204;2023-04-02T03:00:53;101831.09;;;6.21;100.00
49216;BME280;45943;53.148;8.204;2023-04-02T03:03:20;101833.69;;;6.42;100.00
49216;BME280;45943;53.148;8.204;2023-04-02T03:05:50;101849.59;;;6.24;100.00
49216;BME280;45943;53.148;8.204;2023-04-02T03:08:35;101850.88;;;6.16;100.00
49216;BME280;45943;53.148;8.204;2023-04-02T03:16:47;101856.56;;;6.08;100.00
49216;BME280;45943;53.148;8.204;2023-04-02T03:19:28;101861.53;;;6.16;100.00
49216;BME280;45943;53.148;8.204;2023-04-02T03:24:58;101872.69;;;6.05;100.00
49216;BME280;45943;53.148;8.204;2023-04-02T03:27:31;101876.25;;;6.24;100.00
49216;BME280;45943;53.148;8.204;2023-04-02T03:32:49;101887.06;;;6.21;100.00
49216;BME280;45943;53.148;8.204;2023-04-02T03:35:36;101898.31;;;6.08;100.00
49216;BME280;45943;53.148;8.204;2023-04-02T03:38:22;101903.88;;;6.03;100.00
49216;BME280;45943;53.148;8.204;2023-04-02T03:43:19;101913.91;;;5.96;100.00
49216;BME280;45943;53.148;8.204;2023-04-02T03:45:50;101919.22;;;6.17;100.00
49216;BME280;45943;53.148;8.204;2023-04-02T03:48:33;101922.00;;;6.34;100.00
49216;BME280;45943;53.148;8.204;2023-04-02T03:51:06;101918.03;;;6.43;100.00
49216;BME280;45943;53.148;8.204;2023-04-02T03:53:42;101922.69;;;5.98;100.00
49216;BME280;45943;53.148;8.204;2023-04-02T03:56:10;101931.19;;;6.27;100.00
49216;BME280;45943;53.148;8.204;2023-04-02T03:58:53;101931.88;;;6.51;100.00
49216;BME280;45943;53.148;8.204;2023-04-02T04:01:32;101936.13;;;6.55;100.00
49216;BME280;45943;53.148;8.204;2023-04-02T04:04:05;101946.78;;;6.55;100.00
49216;BME280;45943;53.148;8.204;2023-04-02T04:06:40;101939.03;;;6.50;100.00
49216;BME280;45943;53.148;8.204;2023-04-02T04:09:21;101950.75;;;6.65;100.00
49216;BME280;45943;53.148;8.204;2023-04-02T04:12:01;101950.53;;;6.51;100.00
49216;BME280;45943;53.148;8.204;2023-04-02T04:14:35;101953.84;;;6.17;100.00
49216;BME280;45943;53.148;8.204;2023-04-02T04:22:23;101969.16;;;6.32;100.00
49216;BME280;45943;53.148;8.204;2023-04-02T04:24:55;101971.22;;;6.25;100.00
49216;BME280;45943;53.148;8.204;2023-04-02T04:27:39;101978.28;;;6.26;100.00
49216;BME280;45943;53.148;8.204;2023-04-02T04:30:22;101985.34;;;6.07;100.00
49216;BME280;45943;53.148;8.204;2023-04-02T04:33:41;101983.44;;;6.31;100.00
49216;BME280;45943;53.148;8.204;2023-04-02T04:36:05;102006.06;;;6.41;100.00
49216;BME280;45943;53.148;8.204;2023-04-02T04:38:45;102002.09;;;6.31;100.00
49216;BME280;45943;53.148;8.204;2023-04-02T04:41:21;102006.47;;;6.32;100.00
49216;BME280;45943;53.148;8.204;2023-04-02T04:43:53;102014.94;;;6.42;100.00
49216;BME280;45943;53.148;8.204;2023-04-02T04:47:14;102026.78;;;6.35;100.00
49216;BME280;45943;53.148;8.204;2023-04-02T04:49:29;102033.31;;;6.27;100.00
49216;BME280;45943;53.148;8.204;2023-04-02T04:52:06;102036.78;;;6.29;100.00
49216;BME280;45943;53.148;8.204;2023-04-02T04:54:38;102056.34;;;6.08;100.00
49216;BME280;45943;53.148;8.204;2023-04-02T04:57:04;102046.13;;;6.40;100.00
49216;BME280;45943;53.148;8.204;2023-04-02T04:59:43;102061.72;;;6.68;100.00
49216;BME280;45943;53.148;8.204;2023-04-02T05:02:17;102068.25;;;6.81;100.00
49216;BME280;45943;53.148;8.204;2023-04-02T05:04:49;102075.84;;;6.90;100.00
49216;BME280;45943;53.148;8.204;2023-04-02T05:07:17;102079.94;;;6.97;100.00
49216;BME280;45943;53.148;8.204;2023-04-02T05:12:29;102089.00;;;6.74;100.00
49216;BME280;45943;53.148;8.204;2023-04-02T05:15:03;102091.53;;;6.57;100.00
49216;BME280;45943;53.148;8.204;2023-04-02T05:17:41;102093.88;;;6.65;100.00
49216;BME280;45943;53.148;8.204;2023-04-02T05:20:18;102104.91;;;6.76;100.00
49216;BME280;45943;53.148;8.204;2023-04-02T05:22:52;102103.78;;;6.81;100.00
49216;BME280;45943;53.148;8.204;2023-04-02T05:25:26;102106.91;;;6.91;100.00
49216;BME280;45943;53.148;8.204;2023-04-02T05:31:06;102128.34;;;6.89;100.00
49216;BME280;45943;53.148;8.204;2023-04-02T05:33:36;102125.69;;;6.88;100.00
49216;BME280;45943;53.148;8.204;2023-04-02T05:36:06;102134.00;;;6.82;100.00
49216;BME280;45943;53.148;8.204;2023-04-02T05:38:42;102129.53;;;6.82;100.00
49216;BME280;45943;53.148;8.204;2023-04-02T05:44:05;102140.16;;;7.03;100.00
49216;BME280;45943;53.148;8.204;2023-04-02T05:46:41;102150.84;;;7.03;100.00
49216;BME280;45943;53.148;8.204;2023-04-02T05:49:48;102157.06;;;6.83;100.00
49216;BME280;45943;53.148;8.204;2023-04-02T05:52:14;102163.03;;;6.88;100.00
49216;BME280;45943;53.148;8.204;2023-04-02T06:00:17;102176.44;;;6.86;100.00
49216;BME280;45943;53.148;8.204;2023-04-02T06:02:55;102177.78;;;6.76;100.00
49216;BME280;45943;53.148;8.204;2023-04-02T06:05:26;102180.44;;;6.76;100.00
49216;BME280;45943;53.148;8.204;2023-04-02T06:08:00;102191.66;;;6.64;100.00
49216;BME280;45943;53.148;8.204;2023-04-02T06:10:36;102196.28;;;6.81;100.00
49216;BME280;45943;53.148;8.204;2023-04-02T06:13:11;102206.94;;;7.01;100.00
49216;BME280;45943;53.148;8.204;2023-04-02T06:15:42;102208.91;;;7.16;100.00
49216;BME280;45943;53.148;8.204;2023-04-02T06:20:58;102219.53;;;7.38;100.00
49216;BME280;45943;53.148;8.204;2023-04-02T06:28:52;102231.59;;;7.06;100.00
49216;BME280;45943;53.148;8.204;2023-04-02T06:31:27;102231.88;;;7.00;100.00
49216;BME280;45943;53.148;8.204;2023-04-02T06:34:02;102246.41;;;7.13;100.00
49216;BME280;45943;53.148;8.204;2023-04-02T06:36:29;102243.59;;;6.96;100.00
49216;BME280;45943;53.148;8.204;2023-04-02T06:38:58;102253.09;;;7.03;100.00
49216;BME280;45943;53.148;8.204;2023-04-02T06:41:30;102255.44;;;7.11;100.00
49216;BME280;45943;53.148;8.204;2023-04-02T06:43:57;102258.81;;;7.14;100.00
49216;BME280;45943;53.148;8.204;2023-04-02T06:46:37;102265.56;;;7.23;100.00
49216;BME280;45943;53.148;8.204;2023-04-02T06:49:12;102270.03;;;7.23;100.00
49216;BME280;45943;53.148;8.204;2023-04-02T06:51:43;102268.91;;;7.28;100.00
49216;BME280;45943;53.148;8.204;2023-04-02T06:54:16;102267.09;;;7.29;100.00
49216;BME280;45943;53.148;8.204;2023-04-02T06:56:50;102267.75;;;7.34;100.00
49216;BME280;45943;53.148;8.204;2023-04-02T06:59:17;102268.56;;;7.36;100.00
49216;BME280;45943;53.148;8.204;2023-04-02T07:01:49;102279.44;;;7.31;100.00
49216;BME280;45943;53.148;8.204;2023-04-02T07:04:19;102275.22;;;7.46;100.00
49216;BME280;45943;53.148;8.204;2023-04-02T07:06:46;102282.56;;;7.41;100.00
49216;BME280;45943;53.148;8.204;2023-04-02T07:09:12;102282.28;;;7.47;100.00
49216;BME280;45943;53.148;8.204;2023-04-02T07:11:38;102293.88;;;7.47;100.00
49216;BME280;45943;53.148;8.204;2023-04-02T07:14:04;102290.81;;;7.55;100.00
49216;BME280;45943;53.148;8.204;2023-04-02T07:16:31;102304.72;;;7.43;100.00
49216;BME280;45943;53.148;8.204;2023-04-02T07:18:59;102305.28;;;7.31;100.00
49216;BME280;45943;53.148;8.204;2023-04-02T07:21:25;102309.41;;;7.38;100.00
49216;BME280;45943;53.148;8.204;2023-04-02T07:23:52;102313.19;;;7.53;100.00
49216;BME280;45943;53.148;8.204;2023-04-02T07:26:19;102316.34;;;7.62;100.00
49216;BME280;45943;53.148;8.204;2023-04-02T07:28:47;102309.78;;;7.69;100.00
49216;BME280;45943;53.148;8.204;2023-04-02T07:33:44;102325.59;;;7.74;100.00
49216;BME280;45943;53.148;8.204;2023-04-02T07:36:18;102326.56;;;7.92;100.00
49216;BME280;45943;53.148;8.204;2023-04-02T07:38:47;102334.47;;;7.74;100.00
49216;BME280;45943;53.148;8.204;2023-04-02T07:41:14;102331.06;;;8.10;100.00
49216;BME280;45943;53.148;8.204;2023-04-02T07:43:41;102338.94;;;8.13;100.00
49216;BME280;45943;53.148;8.204;2023-04-02T07:46:07;102345.94;;;8.36;100.00
49216;BME280;45943;53.148;8.204;2023-04-02T07:48:34;102352.19;;;8.54;100.00
49216;BME280;45943;53.148;8.204;2023-04-02T07:51:00;102361.50;;;8.26;98.43
49216;BME280;45943;53.148;8.204;2023-04-02T07:53:36;102357.59;;;8.33;98.61
49216;BME280;45943;53.148;8.204;2023-04-02T07:56:03;102366.44;;;8.15;98.39
49216;BME280;45943;53.148;8.204;2023-04-02T07:58:31;102370.28;;;8.49;95.63
49216;BME280;45943;53.148;8.204;2023-04-02T08:00:58;102381.75;;;8.70;95.53
49216;BME280;45943;53.148;8.204;2023-04-02T08:03:26;102379.25;;;8.48;97.52
49216;BME280;45943;53.148;8.204;2023-04-02T08:05:53;102384.16;;;8.76;100.00
49216;BME280;45943;53.148;8.204;2023-04-02T08:08:21;102385.06;;;8.75;94.68
49216;BME280;45943;53.148;8.204;2023-04-02T08:10:49;102384.63;;;8.65;93.76
49216;BME280;45943;53.148;8.204;2023-04-02T08:13:15;102387.97;;;8.70;91.94
49216;BME280;45943;53.148;8.204;2023-04-02T08:15:43;102388.84;;;8.71;93.38
49216;BME280;45943;53.148;8.204;2023-04-02T08:18:09;102402.56;;;8.63;96.65
49216;BME280;45943;53.148;8.204;2023-04-02T08:20:36;102399.47;;;8.72;95.45
49216;BME280;45943;53.148;8.204;2023-04-02T08:23:02;102403.78;;;8.94;93.73
49216;BME280;45943;53.148;8.204;2023-04-02T08:25:29;102405.47;;;8.96;94.21
49216;BME280;45943;53.148;8.204;2023-04-02T08:27:55;102400.41;;;9.26;92.53
49216;BME280;45943;53.148;8.204;2023-04-02T08:30:21;102404.94;;;9.24;93.37
49216;BME280;45943;53.148;8.204;2023-04-02T08:32:46;102401.34;;;9.42;88.95
49216;BME280;45943;53.148;8.204;2023-04-02T08:35:14;102412.22;;;9.03;88.64
49216;BME280;45943;53.148;8.204;2023-04-02T08:37:41;102412.38;;;9.00;89.54
49216;BME280;45943;53.148;8.204;2023-04-02T08:40:15;102412.75;;;9.29;81.74
49216;BME280;45943;53.148;8.204;2023-04-02T08:42:54;102424.59;;;9.06;79.35
49216;BME280;45943;53.148;8.204;2023-04-02T08:45:32;102415.66;;;9.41;78.69
49216;BME280;45943;53.148;8.204;2023-04-02T08:48:07;102417.53;;;9.22;77.90
49216;BME280;45943;53.148;8.204;2023-04-02T08:50:42;102417.88;;;9.51;78.30
49216;BME280;45943;53.148;8.204;2023-04-02T08:53:14;102415.53;;;9.79;76.64
49216;BME280;45943;53.148;8.204;2023-04-02T08:55:44;102430.38;;;10.02;73.48
49216;BME280;45943;53.148;8.204;2023-04-02T08:58:38;102436.47;;;9.71;72.87
49216;BME280;45943;53.148;8.204;2023-04-02T09:01:10;102437.69;;;9.65;71.29
49216;BME280;45943;53.148;8.204;2023-04-02T09:03:41;102438.69;;;9.97;72.78
49216;BME280;45943;53.148;8.204;2023-04-02T09:06:12;102438.75;;;10.13;69.87
49216;BME280;45943;53.148;8.204;2023-04-02T09:08:42;102449.09;;;9.86;71.22
49216;BME280;45943;53.148;8.204;2023-04-02T09:11:22;102452.50;;;10.24;71.25
49216;BME280;45943;53.148;8.204;2023-04-02T09:13:56;102460.25;;;10.12;68.78
49216;BME280;45943;53.148;8.204;2023-04-02T09:16:33;102452.25;;;9.94;69.01
49216;BME280;45943;53.148;8.204;2023-04-02T09:19:24;102465.13;;;10.55;71.66
49216;BME280;45943;53.148;8.204;2023-04-02T09:21:59;102474.94;;;10.22;67.82
49216;BME280;45943;53.148;8.204;2023-04-02T09:24:31;102460.44;;;10.59;66.09
49216;BME280;45943;53.148;8.204;2023-04-02T09:26:57;102472.66;;;10.80;66.22
49216;BME280;45943;53.148;8.204;2023-04-02T09:29:27;102476.38;;;10.62;65.66
49216;BME280;45943;53.148;8.204;2023-04-02T09:32:17;102473.56;;;10.48;65.51
49216;BME280;45943;53.148;8.204;2023-04-02T09:34:49;102476.75;;;10.72;67.03
49216;BME280;45943;53.148;8.204;2023-04-02T09:37:30;102480.03;;;10.77;65.76
49216;BME280;45943;53.148;8.204;2023-04-02T09:43:14;102482.31;;;11.32;63.90
49216;BME280;45943;53.148;8.204;2023-04-02T09:45:43;102491.09;;;11.49;62.71
49216;BME280;45943;53.148;8.204;2023-04-02T09:48:21;102483.50;;;11.26;62.39
49216;BME280;45943;53.148;8.204;2023-04-02T09:50:59;102489.66;;;11.28;63.53
49216;BME280;45943;53.148;8.204;2023-04-02T09:53:36;102494.19;;;11.73;64.29
49216;BME280;45943;53.148;8.204;2023-04-02T09:56:11;102495.19;;;11.09;61.42
49216;BME280;45943;53.148;8.204;2023-04-02T09:58:39;102495.16;;;11.72;63.05
49216;BME280;45943;53.148;8.204;2023-04-02T10:01:26;102497.03;;;12.16;60.94
49216;BME280;45943;53.148;8.204;2023-04-02T10:03:54;102495.13;;;12.32;58.29
49216;BME280;45943;53.148;8.204;2023-04-02T10:06:21;102506.06;;;11.85;55.93
49216;BME280;45943;53.148;8.204;2023-04-02T10:08:47;102512.19;;;11.26;58.80
49216;BME280;45943;53.148;8.204;2023-04-02T10:11:32;102497.31;;;11.66;57.64
49216;BME280;45943;53.148;8.204;2023-04-02T10:16:49;102511.25;;;12.18;59.55
49216;BME280;45943;53.148;8.204;2023-04-02T10:19:24;102508.38;;;12.21;56.79
49216;BME280;45943;53.148;8.204;2023-04-02T10:21:59;102505.72;;;12.64;57.17
49216;BME280;45943;53.148;8.204;2023-04-02T10:24:29;102514.47;;;12.53;56.63
49216;BME280;45943;53.148;8.204;2023-04-02T10:38:12;102527.22;;;11.91;55.59
49216;BME280;45943;53.148;8.204;2023-04-02T10:40:57;102536.25;;;11.74;56.56
49216;BME280;45943;53.148;8.204;2023-04-02T10:43:30;102528.56;;;12.28;56.77
49216;BME280;45943;53.148;8.204;2023-04-02T10:46:12;102541.09;;;13.01;57.22
49216;BME280;45943;53.148;8.204;2023-04-02T10:51:32;102554.94;;;13.64;55.05
49216;BME280;45943;53.148;8.204;2023-04-02T10:56:34;102561.09;;;13.25;56.27
49216;BME280;45943;53.148;8.204;2023-04-02T10:59:03;102562.84;;;13.26;55.15
49216;BME280;45943;53.148;8.204;2023-04-02T11:01:35;102564.94;;;13.49;55.21
49216;BME280;45943;53.148;8.204;2023-04-02T11:04:06;102563.63;;;13.55;55.38
49216;BME280;45943;53.148;8.204;2023-04-02T11:06:46;102568.13;;;12.85;54.95
49216;BME280;45943;53.148;8.204;2023-04-02T11:09:26;102566.78;;;13.06;55.73
49216;BME280;45943;53.148;8.204;2023-04-02T11:11:57;102564.19;;;13.05;55.95
49216;BME280;45943;53.148;8.204;2023-04-02T11:14:27;102552.53;;;13.18;55.75
49216;BME280;45943;53.148;8.204;2023-04-02T11:16:55;102561.81;;;13.83;53.93
49216;BME280;45943;53.148;8.204;2023-04-02T11:19:28;102560.44;;;14.29;53.33
49216;BME280;45943;53.148;8.204;2023-04-02T11:21:56;102558.34;;;14.07;51.80
49216;BME280;45943;53.148;8.204;2023-04-02T11:27:06;102574.47;;;14.34;51.17
49216;BME280;45943;53.148;8.204;2023-04-02T11:29:51;102564.16;;;14.92;50.88
49216;BME280;45943;53.148;8.204;2023-04-02T11:32:28;102565.97;;;15.04;49.83
49216;BME280;45943;53.148;8.204;2023-04-02T11:35:22;102576.81;;;14.66;48.24
49216;BME280;45943;53.148;8.204;2023-04-02T11:40:40;102577.69;;;14.67;47.89
49216;BME280;45943;53.148;8.204;2023-04-02T11:48:28;102572.06;;;14.70;47.81
49216;BME280;45943;53.148;8.204;2023-04-02T11:50:55;102589.16;;;13.91;47.36
49216;BME280;45943;53.148;8.204;2023-04-02T11:53:29;102595.78;;;14.12;47.55
49216;BME280;45943;53.148;8.204;2023-04-02T11:56:04;102584.59;;;14.71;46.14
49216;BME280;45943;53.148;8.204;2023-04-02T12:01:30;102582.94;;;15.19;45.87
49216;BME280;45943;53.148;8.204;2023-04-02T12:09:43;102595.25;;;15.60;46.04
49216;BME280;45943;53.148;8.204;2023-04-02T12:12:15;102600.38;;;15.88;45.31
49216;BME280;45943;53.148;8.204;2023-04-02T12:14:55;102607.44;;;16.26;45.47
49216;BME280;45943;53.148;8.204;2023-04-02T12:17:24;102605.44;;;16.52;45.53
49216;BME280;45943;53.148;8.204;2023-04-02T12:19:53;102617.50;;;16.83;43.30
49216;BME280;45943;53.148;8.204;2023-04-02T12:22:22;102612.94;;;17.06;42.48
49216;BME280;45943;53.148;8.204;2023-04-02T12:25:00;102617.97;;;17.10;41.79
49216;BME280;45943;53.148;8.204;2023-04-02T12:27:29;102616.34;;;16.74;41.97
49216;BME280;45943;53.148;8.204;2023-04-02T12:30:10;102613.31;;;17.01;41.76
49216;BME280;45943;53.148;8.204;2023-04-02T12:32:45;102611.81;;;16.86;42.14
49216;BME280;45943;53.148;8.204;2023-04-02T12:35:46;102616.03;;;17.24;41.75
49216;BME280;45943;53.148;8.204;2023-04-02T12:38:17;102616.59;;;17.49;42.21
49216;BME280;45943;53.148;8.204;2023-04-02T12:40:56;102609.34;;;17.61;41.69
49216;BME280;45943;53.148;8.204;2023-04-02T12:43:24;102625.19;;;17.99;41.71
49216;BME280;45943;53.148;8.204;2023-04-02T12:45:56;102629.22;;;18.37;40.40
49216;BME280;45943;53.148;8.204;2023-04-02T12:48:24;102627.16;;;17.97;40.16
49216;BME280;45943;53.148;8.204;2023-04-02T12:50:52;102625.88;;;17.81;39.96
49216;BME280;45943;53.148;8.204;2023-04-02T12:53:19;102634.63;;;17.73;40.35
49216;BME280;45943;53.148;8.204;2023-04-02T12:55:49;102626.97;;;17.56;39.39
49216;BME280;45943;53.148;8.204;2023-04-02T12:58:23;102628.00;;;17.32;39.45
49216;BME280;45943;53.148;8.204;2023-04-02T13:00:51;102623.78;;;17.28;39.81
49216;BME280;45943;53.148;8.204;2023-04-02T13:03:18;102638.06;;;17.08;39.26
49216;BME280;45943;53.148;8.204;2023-04-02T13:05:52;102633.16;;;17.13;40.28
49216;BME280;45943;53.148;8.204;2023-04-02T13:08:27;102651.28;;;16.07;39.13
49216;BME280;45943;53.148;8.204;2023-04-02T13:10:56;102646.84;;;16.06;40.15
49216;BME280;45943;53.148;8.204;2023-04-02T13:13:26;102643.47;;;16.74;40.76
49216;BME280;45943;53.148;8.204;2023-04-02T13:16:01;102637.72;;;17.35;40.17
49216;BME280;45943;53.148;8.204;2023-04-02T13:18:40;102642.66;;;17.74;38.65
49216;BME280;45943;53.148;8.204;2023-04-02T13:23:39;102654.22;;;17.65;38.63
49216;BME280;45943;53.148;8.204;2023-04-02T13:26:21;102638.34;;;17.16;37.96
49216;BME280;45943;53.148;8.204;2023-04-02T13:31:23;102641.66;;;17.75;37.54
49216;BME280;45943;53.148;8.204;2023-04-02T13:33:49;102645.06;;;16.77;36.56
49216;BME280;45943;53.148;8.204;2023-04-02T13:36:15;102638.31;;;16.82;35.85
49216;BME280;45943;53.148;8.204;2023-04-02T13:38:41;102645.47;;;16.59;36.19
49216;BME280;45943;53.148;8.204;2023-04-02T13:41:23;102638.44;;;17.59;36.50
49216;BME280;45943;53.148;8.204;2023-04-02T13:43:56;102626.97;;;18.21;36.17
49216;BME280;45943;53.148;8.204;2023-04-02T13:46:26;102627.91;;;18.52;35.44
49216;BME280;45943;53.148;8.204;2023-04-02T13:48:53;102642.06;;;18.35;35.37
49216;BME280;45943;53.148;8.204;2023-04-02T13:51:21;102642.50;;;17.76;34.39
49216;BME280;45943;53.148;8.204;2023-04-02T13:54:00;102643.97;;;18.23;34.57
49216;BME280;45943;53.148;8.204;2023-04-02T13:56:26;102648.06;;;18.29;33.73
49216;BME280;45943;53.148;8.204;2023-04-02T13:58:53;102648.91;;;17.86;33.06
49216;BME280;45943;53.148;8.204;2023-04-02T14:01:19;102651.50;;;17.88;34.07
49216;BME280;45943;53.148;8.204;2023-04-02T14:03:49;102643.31;;;17.99;33.79
49216;BME280;45943;53.148;8.204;2023-04-02T14:06:28;102636.28;;;17.96;34.26
49216;BME280;45943;53.148;8.204;2023-04-02T14:09:20;102641.31;;;18.12;34.79
49216;BME280;45943;53.148;8.204;2023-04-02T14:12:13;102649.88;;;18.28;34.41
49216;BME280;45943;53.148;8.204;2023-04-02T14:23:15;102660.00;;;16.82;35.71
49216;BME280;45943;53.148;8.204;2023-04-02T14:28:30;102654.72;;;16.92;35.47
49216;BME280;45943;53.148;8.204;2023-04-02T14:39:31;102654.22;;;17.20;35.43
49216;BME280;45943;53.148;8.204;2023-04-02T14:42:09;102649.56;;;17.23;35.83
49216;BME280;45943;53.148;8.204;2023-04-02T14:44:47;102659.16;;;17.04;34.05
49216;BME280;45943;53.148;8.204;2023-04-02T14:47:24;102675.81;;;16.41;33.01
49216;BME280;45943;53.148;8.204;2023-04-02T14:49:59;102681.06;;;16.31;33.58
49216;BME280;45943;53.148;8.204;2023-04-02T14:52:34;102681.53;;;16.25;33.80
49216;BME280;45943;53.148;8.204;2023-04-02T14:55:03;102683.66;;;15.85;34.11
49216;BME280;45943;53.148;8.204;2023-04-02T14:57:37;102684.34;;;15.99;34.15
49216;BME280;45943;53.148;8.204;2023-04-02T15:05:56;102685.56;;;16.43;35.57
49216;BME280;45943;53.148;8.204;2023-04-02T15:08:25;102691.84;;;16.20;35.42
49216;BME280;45943;53.148;8.204;2023-04-02T15:13:39;102691.03;;;15.70;34.60
49216;BME280;45943;53.148;8.204;2023-04-02T15:16:18;102684.31;;;15.75;35.24
49216;BME280;45943;53.148;8.204;2023-04-02T15:18:50;102693.69;;;16.19;35.65
49216;BME280;45943;53.148;8.204;2023-04-02T15:29:37;102695.53;;;16.19;35.15
49216;BME280;45943;53.148;8.204;2023-04-02T15:32:26;102701.66;;;16.33;35.69
49216;BME280;45943;53.148;8.204;2023-04-02T15:38:19;102708.06;;;16.32;35.66
49216;BME280;45943;53.148;8.204;2023-04-02T15:43:52;102705.84;;;16.97;35.13
49216;BME280;45943;53.148;8.204;2023-04-02T15:49:30;102713.34;;;16.34;35.54
49216;BME280;45943;53.148;8.204;2023-04-02T15:52:18;102730.16;;;16.50;35.98
49216;BME280;45943;53.148;8.204;2023-04-02T16:00:32;102735.19;;;16.44;35.04
49216;BME280;45943;53.148;8.204;2023-04-02T16:03:31;102734.91;;;15.99;35.21